sensor_id;sensor_type;location;lat;lon;timestamp;pressure;altitude;pressure_sealevel;temperature;humidity
58534;BME280;44109;52.398;7.024;2024-01-10T00:01:27;103071.78;;;-3.98;100.00
58534;BME280;44109;52.398;7.024;2024-01-10T00:03:55;103065.13;;;-4.02;100.00
58534;BME280;44109;52.398;7.024;2024-01-10T00:06:23;103070.78;;;-4.10;100.00
58534;BME280;44109;52.398;7.024;2024-01-10T00:08:52;103066.78;;;-4.01;100.00
58534;BME280;44109;52.398;7.024;2024-01-10T00:11:19;103061.25;;;-4.13;100.00
58534;BME280;44109;52.398;7.024;2024-01-10T00:13:47;103067.25;;;-4.11;100.00
58534;BME280;44109;52.398;7.024;2024-01-10T00:16:15;103071.25;;;-4.13;100.00
58534;BME280;44109;52.398;7.024;2024-01-10T00:18:42;103058.47;;;-4.06;100.00
58534;BME280;44109;52.398;7.024;2024-01-10T00:21:10;103064.78;;;-4.12;100.00
58534;BME280;44109;52.398;7.024;2024-01-10T00:23:38;103064.53;;;-4.04;100.00
58534;BME280;44109;52.398;7.024;2024-01-10T00:26:07;103065.81;;;-4.13;100.00
58534;BME280;44109;52.398;7.024;2024-01-10T00:28:35;103066.84;;;-4.07;100.00
58534;BME280;44109;52.398;7.024;2024-01-10T00:31:03;103063.53;;;-4.16;100.00
58534;BME280;44109;52.398;7.024;2024-01-10T00:33:31;103050.00;;;-4.16;100.00
58534;BME280;44109;52.398;7.024;2024-01-10T00:35:59;103043.16;;;-4.25;100.00
58534;BME280;44109;52.398;7.024;2024-01-10T00:38:26;103046.00;;;-4.14;100.00
58534;BME280;44109;52.398;7.024;2024-01-10T00:40:54;103033.19;;;-4.38;100.00
58534;BME280;44109;52.398;7.024;2024-01-10T00:43:23;103037.31;;;-4.22;100.00
58534;BME280;44109;52.398;7.024;2024-01-10T00:45:51;103040.63;;;-4.20;100.00
58534;BME280;44109;52.398;7.024;2024-01-10T00:48:18;103027.50;;;-4.23;100.00
58534;BME280;44109;52.398;7.024;2024-01-10T00:50:46;103026.72;;;-4.30;100.00
58534;BME280;44109;52.398;7.024;2024-01-10T00:53:14;103040.22;;;-4.24;100.00
58534;BME280;44109;52.398;7.024;2024-01-10T00:55:41;103032.31;;;-4.25;100.00
58534;BME280;44109;52.398;7.024;2024-01-10T00:58:09;103029.19;;;-4.22;100.00
58534;BME280;44109;52.398;7.024;2024-01-10T01:00:38;103026.25;;;-4.27;100.00
58534;BME280;44109;52.398;7.024;2024-01-10T01:03:06;103032.72;;;-4.28;100.00
58534;BME280;44109;52.398;7.024;2024-01-10T01:08:02;103030.84;;;-4.28;100.00
58534;BME280;44109;52.398;7.024;2024-01-10T01:10:30;103040.88;;;-4.28;100.00
58534;BME280;44109;52.398;7.024;2024-01-10T01:12:57;103046.09;;;-4.34;100.00
58534;BME280;44109;52.398;7.024;2024-01-10T01:15:25;103043.81;;;-4.37;100.00
58534;BME280;44109;52.398;7.024;2024-01-10T01:17:54;103042.38;;;-4.39;100.00
58534;BME280;44109;52.398;7.024;2024-01-10T01:20:21;103047.00;;;-4.53;100.00
58534;BME280;44109;52.398;7.024;2024-01-10T01:22:49;103047.00;;;-4.53;100.00
58534;BME280;44109;52.398;7.024;2024-01-10T01:25:16;103040.78;;;-4.60;100.00
58534;BME280;44109;52.398;7.024;2024-01-10T01:27:44;103042.28;;;-4.77;100.00
58534;BME280;44109;52.398;7.024;2024-01-10T01:30:11;103042.94;;;-4.89;100.00
58534;BME280;44109;52.398;7.024;2024-01-10T01:32:40;103038.16;;;-5.00;100.00
58534;BME280;44109;52.398;7.024;2024-01-10T01:35:09;103031.09;;;-5.14;100.00
58534;BME280;44109;52.398;7.024;2024-01-10T01:37:36;103042.56;;;-5.25;100.00
58534;BME280;44109;52.398;7.024;2024-01-10T01:40:06;103042.13;;;-5.29;100.00
58534;BME280;44109;52.398;7.024;2024-01-10T01:42:35;103041.91;;;-5.41;100.00
58534;BME280;44109;52.398;7.024;2024-01-10T01:45:02;103034.84;;;-5.42;100.00
58534;BME280;44109;52.398;7.024;2024-01-10T01:47:30;103011.97;;;-5.46;100.00
58534;BME280;44109;52.398;7.024;2024-01-10T01:49:58;103032.56;;;-5.31;100.00
58534;BME280;44109;52.398;7.024;2024-01-10T01:52:29;103026.31;;;-5.32;100.00
58534;BME280;44109;52.398;7.024;2024-01-10T01:54:57;103027.59;;;-5.34;100.00
58534;BME280;44109;52.398;7.024;2024-01-10T01:57:25;103026.56;;;-5.40;100.00
58534;BME280;44109;52.398;7.024;2024-01-10T01:59:53;103031.13;;;-5.34;100.00
58534;BME280;44109;52.398;7.024;2024-01-10T02:02:21;103018.63;;;-5.35;100.00
58534;BME280;44109;52.398;7.024;2024-01-10T02:04:51;103022.16;;;-5.41;100.00
58534;BME280;44109;52.398;7.024;2024-01-10T02:07:18;103015.50;;;-5.39;100.00
58534;BME280;44109;52.398;7.024;2024-01-10T02:09:47;103021.16;;;-5.40;100.00
58534;BME280;44109;52.398;7.024;2024-01-10T02:12:15;103017.38;;;-5.39;100.00
58534;BME280;44109;52.398;7.024;2024-01-10T02:14:42;103016.75;;;-5.34;100.00
58534;BME280;44109;52.398;7.024;2024-01-10T02:17:10;103011.75;;;-5.38;100.00
58534;BME280;44109;52.398;7.024;2024-01-10T02:19:38;103018.00;;;-5.57;100.00
58534;BME280;44109;52.398;7.024;2024-01-10T02:22:05;103004.91;;;-5.40;100.00
58534;BME280;44109;52.398;7.024;2024-01-10T02:24:33;103005.50;;;-5.31;100.00
58534;BME280;44109;52.398;7.024;2024-01-10T02:27:02;103002.59;;;-5.23;100.00
58534;BME280;44109;52.398;7.024;2024-01-10T02:29:30;103001.16;;;-5.26;100.00
58534;BME280;44109;52.398;7.024;2024-01-10T02:31:58;102997.22;;;-5.43;100.00
58534;BME280;44109;52.398;7.024;2024-01-10T02:34:25;103002.59;;;-5.37;100.00
58534;BME280;44109;52.398;7.024;2024-01-10T02:36:53;102996.38;;;-5.57;100.00
58534;BME280;44109;52.398;7.024;2024-01-10T02:39:21;102965.59;;;-5.43;100.00
58534;BME280;44109;52.398;7.024;2024-01-10T02:41:48;102986.34;;;-5.23;100.00
58534;BME280;44109;52.398;7.024;2024-01-10T02:44:17;102987.63;;;-5.26;100.00
58534;BME280;44109;52.398;7.024;2024-01-10T02:46:45;102990.94;;;-5.11;100.00
58534;BME280;44109;52.398;7.024;2024-01-10T02:49:13;102983.22;;;-5.14;100.00
58534;BME280;44109;52.398;7.024;2024-01-10T02:51:40;102993.00;;;-5.06;100.00
58534;BME280;44109;52.398;7.024;2024-01-10T02:54:08;102987.16;;;-5.03;100.00
58534;BME280;44109;52.398;7.024;2024-01-10T02:56:36;102983.25;;;-5.33;100.00
58534;BME280;44109;52.398;7.024;2024-01-10T02:59:03;102984.47;;;-5.10;100.00
58534;BME280;44109;52.398;7.024;2024-01-10T03:01:32;102985.91;;;-5.00;100.00
58534;BME280;44109;52.398;7.024;2024-01-10T03:03:59;102986.81;;;-5.40;100.00
58534;BME280;44109;52.398;7.024;2024-01-10T03:06:27;102979.66;;;-5.01;100.00
58534;BME280;44109;52.398;7.024;2024-01-10T03:08:55;102985.69;;;-4.86;100.00
58534;BME280;44109;52.398;7.024;2024-01-10T03:11:23;102988.16;;;-4.91;100.00
58534;BME280;44109;52.398;7.024;2024-01-10T03:14:01;102995.06;;;-4.95;100.00
58534;BME280;44109;52.398;7.024;2024-01-10T03:16:31;102990.06;;;-5.04;100.00
58534;BME280;44109;52.398;7.024;2024-01-10T03:18:59;102987.19;;;-5.16;100.00
58534;BME280;44109;52.398;7.024;2024-01-10T03:21:27;102972.63;;;-5.28;100.00
58534;BME280;44109;52.398;7.024;2024-01-10T03:23:55;102990.69;;;-4.89;100.00
58534;BME280;44109;52.398;7.024;2024-01-10T03:26:23;102980.03;;;-4.84;100.00
58534;BME280;44109;52.398;7.024;2024-01-10T03:28:51;102978.66;;;-5.20;100.00
58534;BME280;44109;52.398;7.024;2024-01-10T03:31:19;102975.50;;;-4.97;100.00
58534;BME280;44109;52.398;7.024;2024-01-10T03:33:49;102922.69;;;-5.19;100.00
58534;BME280;44109;52.398;7.024;2024-01-10T03:36:17;102979.59;;;-4.74;100.00
58534;BME280;44109;52.398;7.024;2024-01-10T03:38:45;102979.16;;;-4.71;100.00
58534;BME280;44109;52.398;7.024;2024-01-10T03:41:13;102971.69;;;-4.82;100.00
58534;BME280;44109;52.398;7.024;2024-01-10T03:43:42;102976.28;;;-4.83;100.00
58534;BME280;44109;52.398;7.024;2024-01-10T03:46:10;102966.91;;;-4.80;100.00
58534;BME280;44109;52.398;7.024;2024-01-10T03:48:38;102963.81;;;-4.91;100.00
58534;BME280;44109;52.398;7.024;2024-01-10T03:51:15;102946.38;;;-5.08;100.00
58534;BME280;44109;52.398;7.024;2024-01-10T03:53:43;102954.69;;;-5.03;100.00
58534;BME280;44109;52.398;7.024;2024-01-10T03:56:11;102966.09;;;-4.81;100.00
58534;BME280;44109;52.398;7.024;2024-01-10T03:58:39;102979.34;;;-4.66;100.00
58534;BME280;44109;52.398;7.024;2024-01-10T04:01:08;102979.19;;;-4.78;100.00
58534;BME280;44109;52.398;7.024;2024-01-10T04:03:36;102976.25;;;-4.70;100.00
58534;BME280;44109;52.398;7.024;2024-01-10T04:06:04;102977.69;;;-4.67;100.00
58534;BME280;44109;52.398;7.024;2024-01-10T04:08:33;102978.97;;;-4.76;100.00
58534;BME280;44109;52.398;7.024;2024-01-10T04:11:01;102975.22;;;-4.75;100.00
58534;BME280;44109;52.398;7.024;2024-01-10T04:13:29;102971.34;;;-5.06;100.00
58534;BME280;44109;52.398;7.024;2024-01-10T04:15:57;102971.91;;;-4.91;100.00
58534;BME280;44109;52.398;7.024;2024-01-10T04:18:24;102957.31;;;-4.76;100.00
58534;BME280;44109;52.398;7.024;2024-01-10T04:20:52;102957.91;;;-4.68;100.00
58534;BME280;44109;52.398;7.024;2024-01-10T04:23:20;102948.97;;;-4.81;100.00
58534;BME280;44109;52.398;7.024;2024-01-10T04:25:49;102962.53;;;-4.81;100.00
58534;BME280;44109;52.398;7.024;2024-01-10T04:28:16;102955.41;;;-4.69;100.00
58534;BME280;44109;52.398;7.024;2024-01-10T04:30:44;102952.88;;;-4.64;100.00
58534;BME280;44109;52.398;7.024;2024-01-10T04:33:11;102941.63;;;-4.61;100.00
58534;BME280;44109;52.398;7.024;2024-01-10T04:35:39;102951.22;;;-4.65;100.00
58534;BME280;44109;52.398;7.024;2024-01-10T04:38:08;102943.94;;;-4.65;100.00
58534;BME280;44109;52.398;7.024;2024-01-10T04:40:36;102941.03;;;-4.63;100.00
58534;BME280;44109;52.398;7.024;2024-01-10T04:43:05;102941.47;;;-4.73;100.00
58534;BME280;44109;52.398;7.024;2024-01-10T04:45:33;102932.50;;;-4.67;100.00
58534;BME280;44109;52.398;7.024;2024-01-10T04:48:00;102932.03;;;-4.57;100.00
58534;BME280;44109;52.398;7.024;2024-01-10T04:50:28;102925.84;;;-4.71;100.00
58534;BME280;44109;52.398;7.024;2024-01-10T04:52:55;102943.72;;;-4.63;100.00
58534;BME280;44109;52.398;7.024;2024-01-10T04:55:23;102936.25;;;-4.68;100.00
58534;BME280;44109;52.398;7.024;2024-01-10T04:57:50;102935.34;;;-4.55;100.00
58534;BME280;44109;52.398;7.024;2024-01-10T05:00:19;102935.97;;;-4.53;100.00
58534;BME280;44109;52.398;7.024;2024-01-10T05:02:47;102936.56;;;-4.51;100.00
58534;BME280;44109;52.398;7.024;2024-01-10T05:05:15;102935.31;;;-4.48;100.00
58534;BME280;44109;52.398;7.024;2024-01-10T05:07:44;102926.78;;;-4.52;100.00
58534;BME280;44109;52.398;7.024;2024-01-10T05:10:12;102927.03;;;-4.53;100.00
58534;BME280;44109;52.398;7.024;2024-01-10T05:12:39;102927.84;;;-4.60;100.00
58534;BME280;44109;52.398;7.024;2024-01-10T05:15:08;102929.97;;;-4.62;100.00
58534;BME280;44109;52.398;7.024;2024-01-10T05:17:37;102930.38;;;-4.58;100.00
58534;BME280;44109;52.398;7.024;2024-01-10T05:20:06;102932.50;;;-4.73;100.00
58534;BME280;44109;52.398;7.024;2024-01-10T05:22:34;102938.31;;;-4.63;100.00
58534;BME280;44109;52.398;7.024;2024-01-10T05:25:03;102936.16;;;-4.54;100.00
58534;BME280;44109;52.398;7.024;2024-01-10T05:27:31;102918.78;;;-4.72;100.00
58534;BME280;44109;52.398;7.024;2024-01-10T05:29:59;102915.38;;;-4.61;100.00
58534;BME280;44109;52.398;7.024;2024-01-10T05:32:27;102930.31;;;-4.51;100.00
58534;BME280;44109;52.398;7.024;2024-01-10T05:34:56;102924.09;;;-4.52;100.00
58534;BME280;44109;52.398;7.024;2024-01-10T05:37:23;102931.16;;;-4.51;100.00
58534;BME280;44109;52.398;7.024;2024-01-10T05:39:51;102926.19;;;-4.54;100.00
58534;BME280;44109;52.398;7.024;2024-01-10T05:42:18;102933.25;;;-4.53;100.00
58534;BME280;44109;52.398;7.024;2024-01-10T05:44:47;102934.56;;;-4.62;100.00
58534;BME280;44109;52.398;7.024;2024-01-10T05:47:14;102935.97;;;-4.60;100.00
58534;BME280;44109;52.398;7.024;2024-01-10T05:49:42;102929.19;;;-4.75;100.00
58534;BME280;44109;52.398;7.024;2024-01-10T05:52:11;102931.06;;;-4.76;100.00
58534;BME280;44109;52.398;7.024;2024-01-10T05:54:39;102924.19;;;-4.78;100.00
58534;BME280;44109;52.398;7.024;2024-01-10T05:57:06;102911.34;;;-4.90;100.00
58534;BME280;44109;52.398;7.024;2024-01-10T05:59:34;102928.78;;;-4.79;100.00
58534;BME280;44109;52.398;7.024;2024-01-10T06:02:02;102929.47;;;-4.90;100.00
58534;BME280;44109;52.398;7.024;2024-01-10T06:04:31;102924.25;;;-4.85;100.00
58534;BME280;44109;52.398;7.024;2024-01-10T06:06:59;102920.72;;;-4.86;100.00
58534;BME280;44109;52.398;7.024;2024-01-10T06:09:28;102927.97;;;-4.86;100.00
58534;BME280;44109;52.398;7.024;2024-01-10T06:11:55;102923.78;;;-4.82;100.00
58534;BME280;44109;52.398;7.024;2024-01-10T06:14:23;102918.41;;;-4.89;100.00
58534;BME280;44109;52.398;7.024;2024-01-10T06:16:50;102920.94;;;-4.94;100.00
58534;BME280;44109;52.398;7.024;2024-01-10T06:19:18;102915.94;;;-4.97;100.00
58534;BME280;44109;52.398;7.024;2024-01-10T06:21:45;102919.56;;;-5.23;100.00
58534;BME280;44109;52.398;7.024;2024-01-10T06:24:13;102920.56;;;-5.11;100.00
58534;BME280;44109;52.398;7.024;2024-01-10T06:26:42;102914.78;;;-5.27;100.00
58534;BME280;44109;52.398;7.024;2024-01-10T06:29:09;102914.41;;;-5.38;100.00
58534;BME280;44109;52.398;7.024;2024-01-10T06:31:37;102913.72;;;-5.13;100.00
58534;BME280;44109;52.398;7.024;2024-01-10T06:34:05;102921.41;;;-5.03;100.00
58534;BME280;44109;52.398;7.024;2024-01-10T06:36:32;102909.19;;;-5.26;100.00
58534;BME280;44109;52.398;7.024;2024-01-10T06:39:00;102911.63;;;-5.11;100.00
58534;BME280;44109;52.398;7.024;2024-01-10T06:41:27;102919.53;;;-5.03;100.00
58534;BME280;44109;52.398;7.024;2024-01-10T06:43:56;102916.41;;;-5.06;100.00
58534;BME280;44109;52.398;7.024;2024-01-10T06:46:24;102914.72;;;-5.01;100.00
58534;BME280;44109;52.398;7.024;2024-01-10T06:48:52;102912.22;;;-5.09;100.00
58534;BME280;44109;52.398;7.024;2024-01-10T06:51:19;102911.41;;;-5.10;100.00
58534;BME280;44109;52.398;7.024;2024-01-10T06:53:47;102929.28;;;-5.02;100.00
58534;BME280;44109;52.398;7.024;2024-01-10T06:56:15;102931.59;;;-4.99;100.00
58534;BME280;44109;52.398;7.024;2024-01-10T06:58:42;102924.06;;;-4.97;100.00
58534;BME280;44109;52.398;7.024;2024-01-10T07:01:14;102928.66;;;-4.97;100.00
58534;BME280;44109;52.398;7.024;2024-01-10T07:03:42;102938.66;;;-4.98;100.00
58534;BME280;44109;52.398;7.024;2024-01-10T07:06:11;102926.81;;;-5.03;100.00
58534;BME280;44109;52.398;7.024;2024-01-10T07:08:40;102927.69;;;-5.16;100.00
58534;BME280;44109;52.398;7.024;2024-01-10T07:11:08;102924.38;;;-5.25;100.00
58534;BME280;44109;52.398;7.024;2024-01-10T07:13:37;102938.50;;;-5.16;100.00
58534;BME280;44109;52.398;7.024;2024-01-10T07:16:05;102943.06;;;-5.23;100.00
58534;BME280;44109;52.398;7.024;2024-01-10T07:18:35;102917.28;;;-5.32;100.00
58534;BME280;44109;52.398;7.024;2024-01-10T07:21:03;102927.91;;;-5.24;100.00
58534;BME280;44109;52.398;7.024;2024-01-10T07:23:31;102936.03;;;-5.38;100.00
58534;BME280;44109;52.398;7.024;2024-01-10T07:26:00;102935.00;;;-5.30;100.00
58534;BME280;44109;52.398;7.024;2024-01-10T07:28:27;102927.69;;;-5.29;100.00
58534;BME280;44109;52.398;7.024;2024-01-10T07:30:55;102935.81;;;-5.36;100.00
58534;BME280;44109;52.398;7.024;2024-01-10T07:33:22;102937.88;;;-5.31;100.00
58534;BME280;44109;52.398;7.024;2024-01-10T07:35:51;102936.88;;;-5.44;100.00
58534;BME280;44109;52.398;7.024;2024-01-10T07:38:21;102946.38;;;-5.15;100.00
58534;BME280;44109;52.398;7.024;2024-01-10T07:40:48;102949.50;;;-5.11;100.00
58534;BME280;44109;52.398;7.024;2024-01-10T07:43:16;102942.44;;;-5.12;100.00
58534;BME280;44109;52.398;7.024;2024-01-10T07:45:44;102955.50;;;-4.96;100.00
58534;BME280;44109;52.398;7.024;2024-01-10T07:48:11;102951.69;;;-4.81;100.00
58534;BME280;44109;52.398;7.024;2024-01-10T07:50:39;102957.38;;;-4.90;100.00
58534;BME280;44109;52.398;7.024;2024-01-10T07:53:08;102954.63;;;-4.83;100.00
58534;BME280;44109;52.398;7.024;2024-01-10T07:55:35;102944.03;;;-4.91;100.00
58534;BME280;44109;52.398;7.024;2024-01-10T07:58:04;102952.22;;;-5.11;100.00
58534;BME280;44109;52.398;7.024;2024-01-10T08:00:33;102951.31;;;-4.92;100.00
58534;BME280;44109;52.398;7.024;2024-01-10T08:03:01;102954.03;;;-4.92;100.00
58534;BME280;44109;52.398;7.024;2024-01-10T08:05:29;102964.81;;;-4.78;100.00
58534;BME280;44109;52.398;7.024;2024-01-10T08:07:56;102963.75;;;-4.77;100.00
58534;BME280;44109;52.398;7.024;2024-01-10T08:10:25;102963.19;;;-4.93;100.00
58534;BME280;44109;52.398;7.024;2024-01-10T08:12:54;102951.16;;;-5.10;100.00
58534;BME280;44109;52.398;7.024;2024-01-10T08:15:22;102946.31;;;-4.88;100.00
58534;BME280;44109;52.398;7.024;2024-01-10T08:17:50;102935.72;;;-4.90;100.00
58534;BME280;44109;52.398;7.024;2024-01-10T08:20:18;102940.44;;;-4.72;100.00
58534;BME280;44109;52.398;7.024;2024-01-10T08:22:47;102924.56;;;-4.62;100.00
58534;BME280;44109;52.398;7.024;2024-01-10T08:25:14;102929.41;;;-4.77;100.00
58534;BME280;44109;52.398;7.024;2024-01-10T08:27:46;102913.97;;;-4.70;100.00
58534;BME280;44109;52.398;7.024;2024-01-10T08:30:15;102934.84;;;-4.39;100.00
58534;BME280;44109;52.398;7.024;2024-01-10T08:32:43;102899.06;;;-4.47;100.00
58534;BME280;44109;52.398;7.024;2024-01-10T08:35:10;102936.19;;;-4.23;100.00
58534;BME280;44109;52.398;7.024;2024-01-10T08:37:38;102933.03;;;-4.13;100.00
58534;BME280;44109;52.398;7.024;2024-01-10T08:40:09;102941.75;;;-4.11;100.00
58534;BME280;44109;52.398;7.024;2024-01-10T08:42:38;102957.38;;;-3.82;100.00
58534;BME280;44109;52.398;7.024;2024-01-10T08:45:08;102959.56;;;-3.65;100.00
58534;BME280;44109;52.398;7.024;2024-01-10T08:47:37;102956.84;;;-3.65;100.00
58534;BME280;44109;52.398;7.024;2024-01-10T08:50:06;102946.47;;;-3.50;100.00
58534;BME280;44109;52.398;7.024;2024-01-10T08:52:35;102953.00;;;-3.33;100.00
58534;BME280;44109;52.398;7.024;2024-01-10T08:55:04;102955.31;;;-3.36;100.00
58534;BME280;44109;52.398;7.024;2024-01-10T08:57:33;102955.00;;;-3.03;100.00
58534;BME280;44109;52.398;7.024;2024-01-10T09:00:00;102951.75;;;-2.75;100.00
58534;BME280;44109;52.398;7.024;2024-01-10T09:02:33;102942.03;;;-3.01;100.00
58534;BME280;44109;52.398;7.024;2024-01-10T09:05:03;102943.38;;;-3.10;100.00
58534;BME280;44109;52.398;7.024;2024-01-10T09:07:33;102938.25;;;-3.18;100.00
58534;BME280;44109;52.398;7.024;2024-01-10T09:10:01;102941.56;;;-3.16;100.00
58534;BME280;44109;52.398;7.024;2024-01-10T09:12:28;102941.56;;;-3.16;100.00
58534;BME280;44109;52.398;7.024;2024-01-10T09:14:56;102944.13;;;-3.40;100.00
58534;BME280;44109;52.398;7.024;2024-01-10T09:17:25;102933.00;;;-3.57;100.00
58534;BME280;44109;52.398;7.024;2024-01-10T09:19:55;102933.03;;;-3.20;100.00
58534;BME280;44109;52.398;7.024;2024-01-10T09:22:23;102936.59;;;-3.01;100.00
58534;BME280;44109;52.398;7.024;2024-01-10T09:24:51;102940.00;;;-3.06;100.00
58534;BME280;44109;52.398;7.024;2024-01-10T09:27:19;102929.19;;;-3.30;100.00
58534;BME280;44109;52.398;7.024;2024-01-10T09:29:48;102933.13;;;-3.26;100.00
58534;BME280;44109;52.398;7.024;2024-01-10T09:32:17;102939.25;;;-3.13;100.00
58534;BME280;44109;52.398;7.024;2024-01-10T09:34:45;102943.50;;;-3.23;100.00
58534;BME280;44109;52.398;7.024;2024-01-10T09:37:14;102935.03;;;-3.09;100.00
58534;BME280;44109;52.398;7.024;2024-01-10T09:39:41;102941.44;;;-3.03;100.00
58534;BME280;44109;52.398;7.024;2024-01-10T09:42:09;102943.84;;;-2.76;100.00
58534;BME280;44109;52.398;7.024;2024-01-10T09:44:36;102936.22;;;-2.68;100.00
58534;BME280;44109;52.398;7.024;2024-01-10T09:47:04;102946.22;;;-2.68;100.00
58534;BME280;44109;52.398;7.024;2024-01-10T09:49:32;102922.53;;;-2.61;100.00
58534;BME280;44109;52.398;7.024;2024-01-10T09:52:03;102912.16;;;-2.83;100.00
58534;BME280;44109;52.398;7.024;2024-01-10T09:54:40;102924.03;;;-2.65;100.00
58534;BME280;44109;52.398;7.024;2024-01-10T09:57:08;102909.59;;;-2.47;100.00
58534;BME280;44109;52.398;7.024;2024-01-10T09:59:36;102929.31;;;-2.22;100.00
58534;BME280;44109;52.398;7.024;2024-01-10T10:02:04;102941.53;;;-2.01;100.00
58534;BME280;44109;52.398;7.024;2024-01-10T10:04:31;102932.78;;;-2.03;100.00
58534;BME280;44109;52.398;7.024;2024-01-10T10:07:00;102923.72;;;-1.73;100.00
58534;BME280;44109;52.398;7.024;2024-01-10T10:09:28;102897.94;;;-1.83;100.00
58534;BME280;44109;52.398;7.024;2024-01-10T10:11:58;102930.59;;;-1.59;100.00
58534;BME280;44109;52.398;7.024;2024-01-10T10:14:28;102924.69;;;-1.33;100.00
58534;BME280;44109;52.398;7.024;2024-01-10T10:17:13;102924.22;;;-1.53;100.00
58534;BME280;44109;52.398;7.024;2024-01-10T10:19:42;102904.69;;;-1.26;100.00
58534;BME280;44109;52.398;7.024;2024-01-10T10:22:10;102927.66;;;-1.22;100.00
58534;BME280;44109;52.398;7.024;2024-01-10T10:24:41;102917.47;;;-1.15;100.00
58534;BME280;44109;52.398;7.024;2024-01-10T10:27:12;102907.19;;;-1.60;100.00
58534;BME280;44109;52.398;7.024;2024-01-10T10:29:41;102905.78;;;-1.39;100.00
58534;BME280;44109;52.398;7.024;2024-01-10T10:32:09;102902.44;;;-1.18;100.00
58534;BME280;44109;52.398;7.024;2024-01-10T10:34:36;102909.31;;;-1.27;100.00
58534;BME280;44109;52.398;7.024;2024-01-10T10:37:04;102904.19;;;-1.23;100.00
58534;BME280;44109;52.398;7.024;2024-01-10T10:39:31;102899.97;;;-1.43;100.00
58534;BME280;44109;52.398;7.024;2024-01-10T10:42:00;102893.56;;;-1.37;100.00
58534;BME280;44109;52.398;7.024;2024-01-10T10:44:34;102896.53;;;-1.38;100.00
58534;BME280;44109;52.398;7.024;2024-01-10T10:47:09;102894.38;;;-1.24;100.00
58534;BME280;44109;52.398;7.024;2024-01-10T10:49:44;102898.75;;;-1.23;98.56
58534;BME280;44109;52.398;7.024;2024-01-10T10:52:18;102900.78;;;-1.31;94.52
58534;BME280;44109;52.398;7.024;2024-01-10T10:54:47;102895.47;;;-1.25;95.96
58534;BME280;44109;52.398;7.024;2024-01-10T10:57:17;102891.75;;;-1.19;94.87
58534;BME280;44109;52.398;7.024;2024-01-10T10:59:48;102894.78;;;-0.81;99.35
58534;BME280;44109;52.398;7.024;2024-01-10T11:02:21;102893.22;;;-0.77;100.00
58534;BME280;44109;52.398;7.024;2024-01-10T11:04:49;102897.03;;;-0.89;93.56
58534;BME280;44109;52.398;7.024;2024-01-10T11:07:18;102897.41;;;-0.97;93.78
58534;BME280;44109;52.398;7.024;2024-01-10T11:09:47;102891.69;;;-0.84;91.36
58534;BME280;44109;52.398;7.024;2024-01-10T11:12:27;102894.63;;;-0.74;91.40
58534;BME280;44109;52.398;7.024;2024-01-10T11:15:21;102890.06;;;-0.57;98.77
58534;BME280;44109;52.398;7.024;2024-01-10T11:18:12;102878.69;;;-0.94;86.07
58534;BME280;44109;52.398;7.024;2024-01-10T11:21:08;102879.41;;;-0.58;94.61
58534;BME280;44109;52.398;7.024;2024-01-10T11:23:48;102889.88;;;-0.50;94.64
58534;BME280;44109;52.398;7.024;2024-01-10T11:26:19;102876.69;;;-0.41;92.25
58534;BME280;44109;52.398;7.024;2024-01-10T11:28:47;102890.44;;;-0.36;91.56
58534;BME280;44109;52.398;7.024;2024-01-10T11:31:27;102888.13;;;-0.44;82.60
58534;BME280;44109;52.398;7.024;2024-01-10T11:33:58;102881.19;;;-0.18;96.82
58534;BME280;44109;52.398;7.024;2024-01-10T11:36:28;102878.59;;;-0.42;81.35
58534;BME280;44109;52.398;7.024;2024-01-10T11:38:58;102879.53;;;-0.19;85.02
58534;BME280;44109;52.398;7.024;2024-01-10T11:41:29;102869.72;;;-0.20;80.39
58534;BME280;44109;52.398;7.024;2024-01-10T11:44:27;102872.94;;;-0.07;79.77
58534;BME280;44109;52.398;7.024;2024-01-10T11:46:58;102874.84;;;-0.07;83.10
58534;BME280;44109;52.398;7.024;2024-01-10T11:49:27;102863.44;;;0.13;90.72
58534;BME280;44109;52.398;7.024;2024-01-10T11:51:56;102865.09;;;0.31;94.81
58534;BME280;44109;52.398;7.024;2024-01-10T11:54:43;102863.28;;;0.19;80.56
58534;BME280;44109;52.398;7.024;2024-01-10T11:57:14;102837.50;;;0.10;81.14
58534;BME280;44109;52.398;7.024;2024-01-10T11:59:49;102864.66;;;0.39;79.95
58534;BME280;44109;52.398;7.024;2024-01-10T12:02:20;102857.69;;;0.48;86.15
58534;BME280;44109;52.398;7.024;2024-01-10T12:04:49;102859.50;;;0.81;88.24
58534;BME280;44109;52.398;7.024;2024-01-10T12:07:18;102858.69;;;1.24;100.00
58534;BME280;44109;52.398;7.024;2024-01-10T12:09:46;102843.63;;;1.49;97.26
58534;BME280;44109;52.398;7.024;2024-01-10T12:12:14;102852.41;;;1.51;95.86
58534;BME280;44109;52.398;7.024;2024-01-10T12:14:43;102851.34;;;1.57;97.22
58534;BME280;44109;52.398;7.024;2024-01-10T12:17:11;102844.56;;;1.92;100.00
58534;BME280;44109;52.398;7.024;2024-01-10T12:19:40;102848.56;;;1.52;88.65
58534;BME280;44109;52.398;7.024;2024-01-10T12:22:41;102846.72;;;1.58;79.92
58534;BME280;44109;52.398;7.024;2024-01-10T12:25:10;102846.19;;;1.34;72.38
58534;BME280;44109;52.398;7.024;2024-01-10T12:27:38;102845.75;;;1.42;78.15
58534;BME280;44109;52.398;7.024;2024-01-10T12:30:06;102840.28;;;1.42;86.26
58534;BME280;44109;52.398;7.024;2024-01-10T12:32:34;102839.44;;;1.14;76.26
58534;BME280;44109;52.398;7.024;2024-01-10T12:35:04;102840.00;;;1.16;78.15
58534;BME280;44109;52.398;7.024;2024-01-10T12:37:33;102840.19;;;1.10;74.45
58534;BME280;44109;52.398;7.024;2024-01-10T12:40:01;102834.94;;;1.30;77.83
58534;BME280;44109;52.398;7.024;2024-01-10T12:42:30;102841.06;;;1.15;74.31
58534;BME280;44109;52.398;7.024;2024-01-10T12:44:58;102832.16;;;1.52;83.21
58534;BME280;44109;52.398;7.024;2024-01-10T12:47:26;102831.66;;;1.55;79.49
58534;BME280;44109;52.398;7.024;2024-01-10T12:49:53;102836.88;;;1.89;82.84
58534;BME280;44109;52.398;7.024;2024-01-10T12:52:22;102842.19;;;2.00;87.43
58534;BME280;44109;52.398;7.024;2024-01-10T12:54:50;102845.44;;;1.97;77.07